sensor_id;sensor_type;location;lat;lon;timestamp;pressure;altitude;pressure_sealevel;temperature;humidity
9091;BME280;4581;42.416;25.598;2024-03-07T00:00:18;98497.47;;;8.09;82.95
9091;BME280;4581;42.416;25.598;2024-03-07T00:02:47;98489.41;;;8.09;82.36
9091;BME280;4581;42.416;25.598;2024-03-07T00:05:20;98492.75;;;8.11;82.21
9091;BME280;4581;42.416;25.598;2024-03-07T00:07:51;98495.25;;;8.05;82.30
9091;BME280;4581;42.416;25.598;2024-03-07T00:10:19;98495.94;;;8.07;82.65
9091;BME280;4581;42.416;25.598;2024-03-07T00:12:49;98488.38;;;8.02;82.52
9091;BME280;4581;42.416;25.598;2024-03-07T00:15:16;98482.50;;;8.07;82.43
9091;BME280;4581;42.416;25.598;2024-03-07T00:17:44;98477.97;;;8.07;82.39
9091;BME280;4581;42.416;25.598;2024-03-07T00:20:11;98472.94;;;8.04;82.02
9091;BME280;4581;42.416;25.598;2024-03-07T00:22:43;98469.00;;;7.90;81.99
9091;BME280;4581;42.416;25.598;2024-03-07T00:25:10;98470.50;;;7.85;82.77
9091;BME280;4581;42.416;25.598;2024-03-07T00:27:38;98469.84;;;7.91;83.22
9091;BME280;4581;42.416;25.598;2024-03-07T00:30:05;98481.44;;;7.91;82.75
9091;BME280;4581;42.416;25.598;2024-03-07T00:32:35;98481.91;;;7.87;83.15
9091;BME280;4581;42.416;25.598;2024-03-07T00:35:03;98472.00;;;7.87;82.71
9091;BME280;4581;42.416;25.598;2024-03-07T00:37:30;98473.22;;;7.93;82.58
9091;BME280;4581;42.416;25.598;2024-03-07T00:39:58;98464.84;;;7.96;83.09
9091;BME280;4581;42.416;25.598;2024-03-07T00:42:25;98473.75;;;7.96;82.87
9091;BME280;4581;42.416;25.598;2024-03-07T00:44:52;98468.47;;;7.87;82.42
9091;BME280;4581;42.416;25.598;2024-03-07T00:47:19;98471.34;;;7.85;82.54
9091;BME280;4581;42.416;25.598;2024-03-07T00:49:46;98459.53;;;7.78;82.40
9091;BME280;4581;42.416;25.598;2024-03-07T00:52:16;98462.72;;;7.74;83.51
9091;BME280;4581;42.416;25.598;2024-03-07T00:54:42;98454.47;;;7.67;84.10
9091;BME280;4581;42.416;25.598;2024-03-07T00:57:09;98456.34;;;7.75;84.01
9091;BME280;4581;42.416;25.598;2024-03-07T00:59:36;98449.78;;;7.69;84.33
9091;BME280;4581;42.416;25.598;2024-03-07T01:02:03;98447.47;;;7.74;84.70
9091;BME280;4581;42.416;25.598;2024-03-07T01:04:30;98446.47;;;7.75;84.51
9091;BME280;4581;42.416;25.598;2024-03-07T01:07:00;98453.03;;;7.81;84.79
9091;BME280;4581;42.416;25.598;2024-03-07T01:09:28;98452.84;;;7.74;84.45
9091;BME280;4581;42.416;25.598;2024-03-07T01:11:55;98452.66;;;7.76;84.49
9091;BME280;4581;42.416;25.598;2024-03-07T01:14:22;98443.44;;;7.78;84.99
9091;BME280;4581;42.416;25.598;2024-03-07T01:16:50;98449.63;;;7.71;84.96
9091;BME280;4581;42.416;25.598;2024-03-07T01:19:17;98452.84;;;7.74;85.50
9091;BME280;4581;42.416;25.598;2024-03-07T01:21:44;98458.34;;;7.73;85.38
9091;BME280;4581;42.416;25.598;2024-03-07T01:24:10;98459.34;;;7.72;85.33
9091;BME280;4581;42.416;25.598;2024-03-07T01:26:37;98454.63;;;7.66;85.57
9091;BME280;4581;42.416;25.598;2024-03-07T01:29:04;98452.94;;;7.65;85.90
9091;BME280;4581;42.416;25.598;2024-03-07T01:31:34;98464.34;;;7.67;85.89
9091;BME280;4581;42.416;25.598;2024-03-07T01:34:01;98461.84;;;7.65;86.05
9091;BME280;4581;42.416;25.598;2024-03-07T01:36:27;98470.22;;;7.62;85.83
9091;BME280;4581;42.416;25.598;2024-03-07T01:38:54;98472.06;;;7.62;86.59
9091;BME280;4581;42.416;25.598;2024-03-07T01:41:21;98460.56;;;7.51;86.95
9091;BME280;4581;42.416;25.598;2024-03-07T01:43:48;98464.09;;;7.52;86.75
9091;BME280;4581;42.416;25.598;2024-03-07T01:46:15;98458.53;;;7.45;86.84
9091;BME280;4581;42.416;25.598;2024-03-07T01:48:42;98450.03;;;7.50;87.51
9091;BME280;4581;42.416;25.598;2024-03-07T01:51:09;98446.50;;;7.49;87.57
9091;BME280;4581;42.416;25.598;2024-03-07T01:53:36;98452.84;;;7.48;88.30
9091;BME280;4581;42.416;25.598;2024-03-07T01:56:04;98443.63;;;7.51;88.43
9091;BME280;4581;42.416;25.598;2024-03-07T01:58:31;98447.16;;;7.51;88.43
9091;BME280;4581;42.416;25.598;2024-03-07T02:00:59;98442.50;;;7.53;88.66
9091;BME280;4581;42.416;25.598;2024-03-07T02:03:27;98440.69;;;7.62;87.95
9091;BME280;4581;42.416;25.598;2024-03-07T02:05:54;98438.59;;;7.48;87.84
9091;BME280;4581;42.416;25.598;2024-03-07T02:08:21;98430.41;;;7.49;88.08
9091;BME280;4581;42.416;25.598;2024-03-07T02:10:48;98431.75;;;7.53;88.92
9091;BME280;4581;42.416;25.598;2024-03-07T02:13:16;98435.97;;;7.56;89.00
9091;BME280;4581;42.416;25.598;2024-03-07T02:15:42;98437.78;;;7.56;88.31
9091;BME280;4581;42.416;25.598;2024-03-07T02:18:12;98442.63;;;7.52;88.16
9091;BME280;4581;42.416;25.598;2024-03-07T02:20:45;98438.25;;;7.51;88.72
9091;BME280;4581;42.416;25.598;2024-03-07T02:23:15;98436.06;;;7.46;88.64
9091;BME280;4581;42.416;25.598;2024-03-07T02:25:42;98437.13;;;7.53;88.94
9091;BME280;4581;42.416;25.598;2024-03-07T02:28:09;98436.38;;;7.43;89.35
9091;BME280;4581;42.416;25.598;2024-03-07T02:30:35;98430.16;;;7.43;89.74
9091;BME280;4581;42.416;25.598;2024-03-07T02:33:03;98439.28;;;7.50;89.38
9091;BME280;4581;42.416;25.598;2024-03-07T02:35:34;98431.34;;;7.40;89.30
9091;BME280;4581;42.416;25.598;2024-03-07T02:38:04;98436.75;;;7.48;89.50
9091;BME280;4581;42.416;25.598;2024-03-07T02:40:32;98443.63;;;7.51;89.21
9091;BME280;4581;42.416;25.598;2024-03-07T02:42:58;98435.06;;;7.47;89.06
9091;BME280;4581;42.416;25.598;2024-03-07T02:45:25;98438.25;;;7.51;89.15
9091;BME280;4581;42.416;25.598;2024-03-07T02:47:53;98440.28;;;7.49;89.62
9091;BME280;4581;42.416;25.598;2024-03-07T02:50:21;98445.41;;;7.42;89.57
9091;BME280;4581;42.416;25.598;2024-03-07T02:52:51;98428.53;;;7.24;89.87
9091;BME280;4581;42.416;25.598;2024-03-07T02:55:19;98432.28;;;7.31;90.44
9091;BME280;4581;42.416;25.598;2024-03-07T02:57:47;98433.59;;;7.27;90.65
9091;BME280;4581;42.416;25.598;2024-03-07T03:00:14;98435.94;;;7.30;90.92
9091;BME280;4581;42.416;25.598;2024-03-07T03:03:00;98439.34;;;7.32;91.02
9091;BME280;4581;42.416;25.598;2024-03-07T03:05:27;98429.78;;;7.30;90.78
9091;BME280;4581;42.416;25.598;2024-03-07T03:07:54;98432.81;;;7.35;90.65
9091;BME280;4581;42.416;25.598;2024-03-07T03:10:25;98431.59;;;7.29;90.21
9091;BME280;4581;42.416;25.598;2024-03-07T03:12:57;98425.53;;;7.27;90.48
9091;BME280;4581;42.416;25.598;2024-03-07T03:15:25;98436.72;;;7.23;90.54
9091;BME280;4581;42.416;25.598;2024-03-07T03:17:52;98431.91;;;7.26;90.72
9091;BME280;4581;42.416;25.598;2024-03-07T03:20:19;98427.84;;;7.22;90.77
9091;BME280;4581;42.416;25.598;2024-03-07T03:22:53;98427.84;;;7.22;91.19
9091;BME280;4581;42.416;25.598;2024-03-07T03:25:40;98429.16;;;7.18;90.62
9091;BME280;4581;42.416;25.598;2024-03-07T03:28:08;98438.88;;;7.19;90.44
9091;BME280;4581;42.416;25.598;2024-03-07T03:30:40;98434.53;;;7.18;90.73
9091;BME280;4581;42.416;25.598;2024-03-07T03:33:08;98436.84;;;7.13;91.41
9091;BME280;4581;42.416;25.598;2024-03-07T03:35:37;98436.00;;;7.13;90.95
9091;BME280;4581;42.416;25.598;2024-03-07T03:38:04;98432.09;;;7.07;91.16
9091;BME280;4581;42.416;25.598;2024-03-07T03:40:31;98424.06;;;7.07;90.92
9091;BME280;4581;42.416;25.598;2024-03-07T03:42:58;98431.81;;;7.10;91.61
9091;BME280;4581;42.416;25.598;2024-03-07T03:45:25;98437.19;;;7.10;91.46
9091;BME280;4581;42.416;25.598;2024-03-07T03:47:52;98434.97;;;7.05;91.58
9091;BME280;4581;42.416;25.598;2024-03-07T03:50:20;98419.88;;;7.04;91.52
9091;BME280;4581;42.416;25.598;2024-03-07T03:52:47;98438.38;;;7.16;90.55
9091;BME280;4581;42.416;25.598;2024-03-07T03:55:14;98437.38;;;7.17;90.51
9091;BME280;4581;42.416;25.598;2024-03-07T03:57:42;98428.81;;;7.13;90.53
9091;BME280;4581;42.416;25.598;2024-03-07T04:00:11;98429.13;;;7.10;90.52
9091;BME280;4581;42.416;25.598;2024-03-07T04:02:41;98435.84;;;7.14;90.38
9091;BME280;4581;42.416;25.598;2024-03-07T04:05:11;98434.78;;;7.07;90.65
9091;BME280;4581;42.416;25.598;2024-03-07T04:07:40;98435.81;;;7.06;90.87
9091;BME280;4581;42.416;25.598;2024-03-07T04:10:11;98435.63;;;7.07;90.51
9091;BME280;4581;42.416;25.598;2024-03-07T04:12:40;98444.19;;;7.11;90.24
9091;BME280;4581;42.416;25.598;2024-03-07T04:15:08;98444.59;;;6.98;89.27
9091;BME280;4581;42.416;25.598;2024-03-07T04:17:35;98443.13;;;7.04;89.45
9091;BME280;4581;42.416;25.598;2024-03-07T04:20:03;98439.78;;;7.02;89.64
9091;BME280;4581;42.416;25.598;2024-03-07T04:22:34;98442.41;;;6.94;89.53
9091;BME280;4581;42.416;25.598;2024-03-07T04:25:02;98441.03;;;6.90;90.15
9091;BME280;4581;42.416;25.598;2024-03-07T04:27:28;98434.38;;;6.94;90.75
9091;BME280;4581;42.416;25.598;2024-03-07T04:29:55;98413.66;;;6.86;90.65
9091;BME280;4581;42.416;25.598;2024-03-07T04:32:22;98429.66;;;6.96;90.20
9091;BME280;4581;42.416;25.598;2024-03-07T04:34:49;98424.00;;;6.99;90.94
9091;BME280;4581;42.416;25.598;2024-03-07T04:37:16;98420.47;;;6.98;90.41
9091;BME280;4581;42.416;25.598;2024-03-07T04:39:43;98430.38;;;6.98;90.04
9091;BME280;4581;42.416;25.598;2024-03-07T04:42:10;98433.41;;;7.03;90.06
9091;BME280;4581;42.416;25.598;2024-03-07T04:44:36;98433.41;;;7.03;90.33
9091;BME280;4581;42.416;25.598;2024-03-07T04:47:04;98423.38;;;7.05;90.04
9091;BME280;4581;42.416;25.598;2024-03-07T04:49:32;98435.16;;;7.12;90.29
9091;BME280;4581;42.416;25.598;2024-03-07T04:52:01;98433.16;;;7.14;89.92
9091;BME280;4581;42.416;25.598;2024-03-07T04:54:29;98431.38;;;6.97;89.35
9091;BME280;4581;42.416;25.598;2024-03-07T04:56:56;98438.09;;;7.01;89.29
9091;BME280;4581;42.416;25.598;2024-03-07T04:59:22;98439.03;;;6.92;89.68
9091;BME280;4581;42.416;25.598;2024-03-07T05:01:50;98441.84;;;6.90;90.08
9091;BME280;4581;42.416;25.598;2024-03-07T05:04:17;98447.84;;;6.84;89.93
9091;BME280;4581;42.416;25.598;2024-03-07T05:06:45;98444.38;;;6.92;90.32
9091;BME280;4581;42.416;25.598;2024-03-07T05:09:14;98445.91;;;6.94;90.26
9091;BME280;4581;42.416;25.598;2024-03-07T05:11:52;98436.41;;;7.00;90.05
9091;BME280;4581;42.416;25.598;2024-03-07T05:14:20;98451.19;;;7.04;89.81
9091;BME280;4581;42.416;25.598;2024-03-07T05:16:48;98459.53;;;7.01;89.24
9091;BME280;4581;42.416;25.598;2024-03-07T05:19:35;98444.06;;;6.95;89.85
9091;BME280;4581;42.416;25.598;2024-03-07T05:22:02;98461.44;;;6.91;90.28
9091;BME280;4581;42.416;25.598;2024-03-07T05:24:32;98455.56;;;6.87;89.97
9091;BME280;4581;42.416;25.598;2024-03-07T05:27:00;98455.41;;;6.89;90.44
9091;BME280;4581;42.416;25.598;2024-03-07T05:29:27;98456.09;;;6.91;90.40
9091;BME280;4581;42.416;25.598;2024-03-07T05:31:54;98464.81;;;6.75;90.30
9091;BME280;4581;42.416;25.598;2024-03-07T05:34:21;98448.44;;;6.78;90.45
9091;BME280;4581;42.416;25.598;2024-03-07T05:36:50;98455.56;;;6.70;90.13
9091;BME280;4581;42.416;25.598;2024-03-07T05:39:17;98453.34;;;6.83;90.69
9091;BME280;4581;42.416;25.598;2024-03-07T05:41:45;98461.53;;;6.81;91.08
9091;BME280;4581;42.416;25.598;2024-03-07T05:44:12;98459.72;;;6.82;91.89
9091;BME280;4581;42.416;25.598;2024-03-07T05:46:41;98450.44;;;6.76;92.01
9091;BME280;4581;42.416;25.598;2024-03-07T05:49:08;98435.53;;;6.74;91.98
9091;BME280;4581;42.416;25.598;2024-03-07T05:51:35;98459.00;;;6.80;92.61
9091;BME280;4581;42.416;25.598;2024-03-07T05:54:02;98459.72;;;6.82;93.42
9091;BME280;4581;42.416;25.598;2024-03-07T05:56:33;98450.44;;;6.76;93.11
9091;BME280;4581;42.416;25.598;2024-03-07T05:59:03;98464.38;;;6.80;94.09
9091;BME280;4581;42.416;25.598;2024-03-07T06:01:36;98466.66;;;6.75;95.19
9091;BME280;4581;42.416;25.598;2024-03-07T06:04:05;98476.75;;;6.63;93.61
9091;BME280;4581;42.416;25.598;2024-03-07T06:06:36;98474.03;;;6.73;95.15
9091;BME280;4581;42.416;25.598;2024-03-07T06:09:05;98471.34;;;6.73;95.48
9091;BME280;4581;42.416;25.598;2024-03-07T06:14:02;98468.34;;;6.76;95.61
9091;BME280;4581;42.416;25.598;2024-03-07T06:16:31;98474.06;;;6.63;95.93
9091;BME280;4581;42.416;25.598;2024-03-07T06:19:02;98476.44;;;6.66;95.91
9091;BME280;4581;42.416;25.598;2024-03-07T06:21:29;98478.97;;;6.68;96.35
9091;BME280;4581;42.416;25.598;2024-03-07T06:24:00;98472.78;;;6.67;95.60
9091;BME280;4581;42.416;25.598;2024-03-07T06:26:35;98478.13;;;6.67;95.45
9091;BME280;4581;42.416;25.598;2024-03-07T06:29:08;98472.94;;;6.66;96.82
9091;BME280;4581;42.416;25.598;2024-03-07T06:31:38;98469.66;;;6.72;95.97
9091;BME280;4581;42.416;25.598;2024-03-07T06:34:05;98469.97;;;6.69;95.41
9091;BME280;4581;42.416;25.598;2024-03-07T06:36:31;98475.41;;;6.77;96.13
9091;BME280;4581;42.416;25.598;2024-03-07T06:38:59;98472.72;;;6.77;96.39
9091;BME280;4581;42.416;25.598;2024-03-07T06:41:26;98483.81;;;6.82;95.17
9091;BME280;4581;42.416;25.598;2024-03-07T06:43:52;98481.44;;;6.79;96.32
9091;BME280;4581;42.416;25.598;2024-03-07T06:46:22;98486.50;;;6.82;95.61
9091;BME280;4581;42.416;25.598;2024-03-07T06:48:48;98486.50;;;6.82;95.70
9091;BME280;4581;42.416;25.598;2024-03-07T06:51:15;98488.16;;;6.83;95.53
9091;BME280;4581;42.416;25.598;2024-03-07T06:53:45;98476.06;;;6.79;95.22
9091;BME280;4581;42.416;25.598;2024-03-07T06:56:14;98482.59;;;6.76;95.50
9091;BME280;4581;42.416;25.598;2024-03-07T06:58:43;98474.69;;;6.75;95.89
9091;BME280;4581;42.416;25.598;2024-03-07T07:01:15;98479.44;;;6.81;94.90
9091;BME280;4581;42.416;25.598;2024-03-07T07:03:43;98472.53;;;6.78;95.38
9091;BME280;4581;42.416;25.598;2024-03-07T07:06:11;98478.59;;;6.80;96.42
9091;BME280;4581;42.416;25.598;2024-03-07T07:08:38;98482.97;;;6.81;96.46
9091;BME280;4581;42.416;25.598;2024-03-07T07:11:05;98480.06;;;6.75;96.28
9091;BME280;4581;42.416;25.598;2024-03-07T07:13:32;98480.69;;;6.69;96.21
9091;BME280;4581;42.416;25.598;2024-03-07T07:16:00;98481.66;;;6.68;97.12
9091;BME280;4581;42.416;25.598;2024-03-07T07:18:30;98482.66;;;6.67;96.86
9091;BME280;4581;42.416;25.598;2024-03-07T07:20:57;98484.66;;;6.65;97.28
9091;BME280;4581;42.416;25.598;2024-03-07T07:23:25;98483.50;;;6.67;96.79
9091;BME280;4581;42.416;25.598;2024-03-07T07:25:53;98479.28;;;6.65;97.80
9091;BME280;4581;42.416;25.598;2024-03-07T07:28:21;98479.97;;;6.67;98.32
9091;BME280;4581;42.416;25.598;2024-03-07T07:30:48;98483.50;;;6.67;98.47
9091;BME280;4581;42.416;25.598;2024-03-07T07:33:15;98483.66;;;6.66;98.83
9091;BME280;4581;42.416;25.598;2024-03-07T07:35:42;98487.72;;;6.70;100.00
9091;BME280;4581;42.416;25.598;2024-03-07T07:38:09;98481.53;;;6.69;100.00
9091;BME280;4581;42.416;25.598;2024-03-07T07:40:38;98487.25;;;6.74;100.00
9091;BME280;4581;42.416;25.598;2024-03-07T07:43:05;98490.75;;;6.75;100.00
9091;BME280;4581;42.416;25.598;2024-03-07T07:45:32;98502.25;;;6.67;100.00
9091;BME280;4581;42.416;25.598;2024-03-07T07:48:03;98492.47;;;6.76;100.00
9091;BME280;4581;42.416;25.598;2024-03-07T07:50:30;98491.16;;;6.80;100.00
9091;BME280;4581;42.416;25.598;2024-03-07T07:52:58;98494.22;;;6.85;100.00
9091;BME280;4581;42.416;25.598;2024-03-07T07:55:29;98495.28;;;6.74;100.00
9091;BME280;4581;42.416;25.598;2024-03-07T07:57:57;98499.34;;;6.78;100.00
9091;BME280;4581;42.416;25.598;2024-03-07T08:00:26;98494.59;;;6.72;100.00
9091;BME280;4581;42.416;25.598;2024-03-07T08:03:00;98499.25;;;6.70;100.00
9091;BME280;4581;42.416;25.598;2024-03-07T08:05:31;98498.44;;;6.70;100.00
9091;BME280;4581;42.416;25.598;2024-03-07T08:08:04;98500.56;;;6.66;100.00
9091;BME280;4581;42.416;25.598;2024-03-07T08:10:35;98499.25;;;6.70;100.00
9091;BME280;4581;42.416;25.598;2024-03-07T08:13:03;98507.78;;;6.66;100.00
9091;BME280;4581;42.416;25.598;2024-03-07T08:15:30;98507.19;;;6.62;100.00
9091;BME280;4581;42.416;25.598;2024-03-07T08:17:58;98502.25;;;6.67;100.00
9091;BME280;4581;42.416;25.598;2024-03-07T08:20:27;98505.78;;;6.68;100.00
9091;BME280;4581;42.416;25.598;2024-03-07T08:22:55;98505.19;;;6.74;100.00
9091;BME280;4581;42.416;25.598;2024-03-07T08:25:24;98510.69;;;6.72;100.00
9091;BME280;4581;42.416;25.598;2024-03-07T08:27:53;98516.88;;;6.73;100.00
9091;BME280;4581;42.416;25.598;2024-03-07T08:30:20;98525.31;;;6.78;100.00
9091;BME280;4581;42.416;25.598;2024-03-07T08:32:52;98531.66;;;6.77;100.00
9091;BME280;4581;42.416;25.598;2024-03-07T08:35:19;98524.06;;;6.72;100.00
9091;BME280;4581;42.416;25.598;2024-03-07T08:37:47;98531.97;;;6.74;100.00
9091;BME280;4581;42.416;25.598;2024-03-07T08:40:26;98527.03;;;6.51;100.00
9091;BME280;4581;42.416;25.598;2024-03-07T08:42:55;98525.88;;;6.54;100.00
9091;BME280;4581;42.416;25.598;2024-03-07T08:45:25;98523.50;;;6.51;100.00
9091;BME280;4581;42.416;25.598;2024-03-07T08:47:56;98526.25;;;6.41;100.00
9091;BME280;4581;42.416;25.598;2024-03-07T08:50:25;98526.16;;;6.51;100.00
9091;BME280;4581;42.416;25.598;2024-03-07T08:52:54;98528.00;;;6.50;100.00
9091;BME280;4581;42.416;25.598;2024-03-07T08:55:25;98529.38;;;6.54;100.00
9091;BME280;4581;42.416;25.598;2024-03-07T08:57:53;98535.44;;;6.56;100.00
9091;BME280;4581;42.416;25.598;2024-03-07T09:00:20;98546.00;;;6.58;100.00
9091;BME280;4581;42.416;25.598;2024-03-07T09:02:57;98541.94;;;6.54;100.00
9091;BME280;4581;42.416;25.598;2024-03-07T09:05:27;98543.09;;;6.51;100.00
9091;BME280;4581;42.416;25.598;2024-03-07T09:07:55;98545.63;;;6.53;100.00
9091;BME280;4581;42.416;25.598;2024-03-07T09:10:22;98545.09;;;6.49;100.00
9091;BME280;4581;42.416;25.598;2024-03-07T09:12:51;98541.56;;;6.49;100.00
9091;BME280;4581;42.416;25.598;2024-03-07T09:15:19;98541.88;;;6.46;100.00
9091;BME280;4581;42.416;25.598;2024-03-07T09:17:49;98548.88;;;6.47;100.00
9091;BME280;4581;42.416;25.598;2024-03-07T09:20:16;98547.28;;;6.54;100.00
9091;BME280;4581;42.416;25.598;2024-03-07T09:22:46;98553.22;;;6.57;100.00
9091;BME280;4581;42.416;25.598;2024-03-07T09:25:17;98550.22;;;6.61;100.00
9091;BME280;4581;42.416;25.598;2024-03-07T09:27:46;98556.25;;;6.63;100.00
9091;BME280;4581;42.416;25.598;2024-03-07T09:30:13;98555.72;;;6.59;100.00
9091;BME280;4581;42.416;25.598;2024-03-07T09:32:47;98564.31;;;6.63;100.00
9091;BME280;4581;42.416;25.598;2024-03-07T09:35:14;98558.47;;;6.49;100.00
9091;BME280;4581;42.416;25.598;2024-03-07T09:37:43;98558.00;;;6.54;100.00
9091;BME280;4581;42.416;25.598;2024-03-07T09:40:11;98559.38;;;6.58;100.00
9091;BME280;4581;42.416;25.598;2024-03-07T09:42:46;98556.25;;;6.63;100.00
9091;BME280;4581;42.416;25.598;2024-03-07T09:45:17;98560.72;;;6.72;100.00
9091;BME280;4581;42.416;25.598;2024-03-07T09:47:49;98558.13;;;6.80;100.00
9091;BME280;4581;42.416;25.598;2024-03-07T09:50:18;98564.69;;;6.68;100.00
9091;BME280;4581;42.416;25.598;2024-03-07T09:52:48;98563.09;;;6.75;100.00
9091;BME280;4581;42.416;25.598;2024-03-07T09:55:19;98563.91;;;6.85;100.00
9091;BME280;4581;42.416;25.598;2024-03-07T09:57:47;98564.13;;;6.74;100.00
9091;BME280;4581;42.416;25.598;2024-03-07T10:00:18;98556.53;;;6.87;100.00
9091;BME280;4581;42.416;25.598;2024-03-07T10:03:05;98553.31;;;6.83;100.00
9091;BME280;4581;42.416;25.598;2024-03-07T10:05:33;98549.97;;;6.81;100.00
9091;BME280;4581;42.416;25.598;2024-03-07T10:08:01;98552.19;;;6.86;100.00
9091;BME280;4581;42.416;25.598;2024-03-07T10:10:28;98555.78;;;6.94;100.00
9091;BME280;4581;42.416;25.598;2024-03-07T10:12:57;98559.53;;;6.84;100.00
9091;BME280;4581;42.416;25.598;2024-03-07T10:15:30;98552.19;;;6.86;100.00
9091;BME280;4581;42.416;25.598;2024-03-07T10:17:58;98541.47;;;6.86;100.00
9091;BME280;4581;42.416;25.598;2024-03-07T10:20:25;98549.78;;;6.83;100.00
9091;BME280;4581;42.416;25.598;2024-03-07T10:22:53;98554.97;;;6.94;100.00
9091;BME280;4581;42.416;25.598;2024-03-07T10:25:21;98550.13;;;6.97;100.00
9091;BME280;4581;42.416;25.598;2024-03-07T10:27:51;98558.25;;;7.05;100.00
9091;BME280;4581;42.416;25.598;2024-03-07T10:30:18;98563.16;;;7.10;100.00
9091;BME280;4581;42.416;25.598;2024-03-07T10:32:51;98552.78;;;7.15;100.00
9091;BME280;4581;42.416;25.598;2024-03-07T10:35:23;98561.91;;;7.04;100.00
9091;BME280;4581;42.416;25.598;2024-03-07T10:37:57;98561.22;;;7.20;100.00
9091;BME280;4581;42.416;25.598;2024-03-07T10:40:28;98558.69;;;7.19;100.00
9091;BME280;4581;42.416;25.598;2024-03-07T10:42:58;98560.59;;;7.26;100.00
9091;BME280;4581;42.416;25.598;2024-03-07T10:45:30;98555.13;;;7.10;100.00
9091;BME280;4581;42.416;25.598;2024-03-07T10:48:02;98562.69;;;7.15;100.00
9091;BME280;4581;42.416;25.598;2024-03-07T10:52:59;98557.00;;;7.00;100.00
9091;BME280;4581;42.416;25.598;2024-03-07T11:01:04;98552.47;;;7.18;100.00
9091;BME280;4581;42.416;25.598;2024-03-07T11:03:34;98553.09;;;7.12;100.00
9091;BME280;4581;42.416;25.598;2024-03-07T11:06:01;98551.72;;;7.08;100.00
9091;BME280;4581;42.416;25.598;2024-03-07T11:08:37;98556.19;;;7.17;100.00
9091;BME280;4581;42.416;25.598;2024-03-07T11:11:04;98554.69;;;7.23;100.00
9091;BME280;4581;42.416;25.598;2024-03-07T11:13:33;98550.50;;;7.20;100.00
9091;BME280;4581;42.416;25.598;2024-03-07T11:16:01;98554.88;;;7.21;100.00
9091;BME280;4581;42.416;25.598;2024-03-07T11:18:29;98552.41;;;7.28;100.00
9091;BME280;4581;42.416;25.598;2024-03-07T11:20:56;98551.25;;;7.30;100.00
9091;BME280;4581;42.416;25.598;2024-03-07T11:23:31;98546.19;;;7.27;100.00
9091;BME280;4581;42.416;25.598;2024-03-07T11:26:09;98547.28;;;7.17;100.00
9091;BME280;4581;42.416;25.598;2024-03-07T11:28:39;98541.53;;;7.12;100.00
9091;BME280;4581;42.416;25.598;2024-03-07T11:31:13;98543.75;;;7.16;100.00
9091;BME280;4581;42.416;25.598;2024-03-07T11:33:41;98536.81;;;7.05;100.00
9091;BME280;4581;42.416;25.598;2024-03-07T11:36:08;98545.44;;;6.99;100.00
9091;BME280;4581;42.416;25.598;2024-03-07T11:38:45;98542.06;;;7.15;100.00
9091;BME280;4581;42.416;25.598;2024-03-07T11:41:12;98537.03;;;7.12;100.00
9091;BME280;4581;42.416;25.598;2024-03-07T11:43:40;98536.28;;;7.02;100.00
9091;BME280;4581;42.416;25.598;2024-03-07T11:46:09;98533.44;;;7.03;100.00
9091;BME280;4581;42.416;25.598;2024-03-07T11:48:41;98529.53;;;6.98;100.00
9091;BME280;4581;42.416;25.598;2024-03-07T11:51:17;98532.97;;;7.08;100.00
9091;BME280;4581;42.416;25.598;2024-03-07T11:53:44;98535.97;;;7.05;100.00
9091;BME280;4581;42.416;25.598;2024-03-07T11:56:14;98534.97;;;7.06;100.00
9091;BME280;4581;42.416;25.598;2024-03-07T11:58:46;98533.59;;;7.02;100.00
9091;BME280;4581;42.416;25.598;2024-03-07T12:01:21;98536.19;;;7.12;100.00
9091;BME280;4581;42.416;25.598;2024-03-07T12:03:52;98525.06;;;7.06;100.00
9091;BME280;4581;42.416;25.598;2024-03-07T12:06:22;98545.91;;;7.13;100.00
9091;BME280;4581;42.416;25.598;2024-03-07T12:08:49;98537.09;;;7.02;100.00
9091;BME280;4581;42.416;25.598;2024-03-07T12:11:16;98536.94;;;6.86;100.00
9091;BME280;4581;42.416;25.598;2024-03-07T12:13:43;98538.16;;;6.92;100.00
9091;BME280;4581;42.416;25.598;2024-03-07T12:16:10;98536.56;;;6.81;100.00
9091;BME280;4581;42.416;25.598;2024-03-07T12:18:37;98539.16;;;6.91;100.00
9091;BME280;4581;42.416;25.598;2024-03-07T12:21:04;98536.19;;;6.94;100.00
9091;BME280;4581;42.416;25.598;2024-03-07T12:23:38;98535.81;;;6.89;100.00
9091;BME280;4581;42.416;25.598;2024-03-07T12:26:05;98532.88;;;7.00;100.00
9091;BME280;4581;42.416;25.598;2024-03-07T12:28:32;98534.59;;;7.01;100.00
9091;BME280;4581;42.416;25.598;2024-03-07T12:31:05;98531.13;;;6.91;100.00
9091;BME280;4581;42.416;25.598;2024-03-07T12:33:42;98533.88;;;6.99;100.00
9091;BME280;4581;42.416;25.598;2024-03-07T12:36:13;98529.63;;;7.06;100.00
9091;BME280;4581;42.416;25.598;2024-03-07T12:38:40;98522.38;;;7.06;100.00
9091;BME280;4581;42.416;25.598;2024-03-07T12:41:10;98533.34;;;7.13;100.00
9091;BME280;4581;42.416;25.598;2024-03-07T12:43:45;98528.00;;;7.13;100.00
9091;BME280;4581;42.416;25.598;2024-03-07T12:46:13;98529.13;;;7.11;100.00
9091;BME280;4581;42.416;25.598;2024-03-07T12:48:42;98525.63;;;7.10;100.00
9091;BME280;4581;42.416;25.598;2024-03-07T12:51:11;98523.75;;;7.11;100.00
9091;BME280;4581;42.416;25.598;2024-03-07T12:53:44;98523.47;;;7.14;100.00
9091;BME280;4581;42.416;25.598;2024-03-07T12:56:13;98522.25;;;7.26;100.00
9091;BME280;4581;42.416;25.598;2024-03-07T12:58:44;98519.25;;;7.29;100.00
9091;BME280;4581;42.416;25.598;2024-03-07T13:01:13;98514.28;;;7.34;100.00
9091;BME280;4581;42.416;25.598;2024-03-07T13:03:40;98516.78;;;7.35;100.00
9091;BME280;4581;42.416;25.598;2024-03-07T13:06:09;98516.31;;;7.40;100.00
9091;BME280;4581;42.416;25.598;2024-03-07T13:08:37;98521.28;;;7.35;100.00
9091;BME280;4581;42.416;25.598;2024-03-07T13:11:04;98519.78;;;7.32;100.00
9091;BME280;4581;42.416;25.598;2024-03-07T13:13:32;98516.63;;;7.37;100.00
9091;BME280;4581;42.416;25.598;2024-03-07T13:15:59;98515.63;;;7.38;100.00
9091;BME280;4581;42.416;25.598;2024-03-07T13:18:26;98522.06;;;7.45;100.00
9091;BME280;4581;42.416;25.598;2024-03-07T13:20:53;98513.50;;;7.41;100.00
9091;BME280;4581;42.416;25.598;2024-03-07T13:23:20;98517.00;;;7.42;100.00
9091;BME280;4581;42.416;25.598;2024-03-07T13:25:46;98513.31;;;7.43;100.00
9091;BME280;4581;42.416;25.598;2024-03-07T13:28:15;98512.78;;;7.39;100.00
9091;BME280;4581;42.416;25.598;2024-03-07T13:30:51;98499.22;;;7.41;100.00
9091;BME280;4581;42.416;25.598;2024-03-07T13:33:21;98498.69;;;7.37;100.00
9091;BME280;4581;42.416;25.598;2024-03-07T13:35:50;98497.63;;;7.30;100.00